Time;durP1;ratioP1;P1;durP2;ratioP2;P2;SDS_P1;SDS_P2;PMS_P1;PMS_P2;Temp;Humidity;BMP_temperature;BMP_pressure;BME280_temperature;BME280_humidity;BME280_pressure;Samples;Min_cycle;Max_cycle;Signal;HPM_P1;HPM_P2
2022/05/07 00:02:15;;;;;;;11.83;9.00;;;;;;;;;;4995713;28;20673;-73
2022/05/07 00:04:42;;;;;;;12.10;9.73;;;;;;;;;;4990201;28;20729;-73
2022/05/07 00:07:08;;;;;;;11.47;8.90;;;;;;;;;;4991287;28;20717;-72
2022/05/07 00:09:35;;;;;;;13.07;8.83;;;;;;;;;;4989474;28;20202;-72
2022/05/07 00:12:01;;;;;;;16.53;9.90;;;;;;;;;;4965827;28;20208;-72
2022/05/07 00:14:27;;;;;;;12.47;9.47;;;;;;;;;;4988830;28;20546;-72
2022/05/07 00:19:38;;;;;;;12.13;8.57;;;;;;;;;;4999389;28;20201;-73
2022/05/07 00:22:04;;;;;;;15.70;9.20;;;;;;;;;;4988489;28;20566;-72
2022/05/07 00:24:30;;;;;;;14.23;9.90;;;;;;;;;;4988127;28;20222;-73
2022/05/07 00:26:55;;;;;;;13.57;10.00;;;;;;;;;;5003047;28;20543;-73
2022/05/07 00:29:21;;;;;;;10.40;8.80;;;;;;;;;;5002129;28;20253;-73
2022/05/07 00:31:47;;;;;;;13.50;9.97;;;;;;;;;;4991255;28;20264;-73
2022/05/07 00:34:13;;;;;;;10.63;9.00;;;;;;;;;;4991182;28;20194;-73
2022/05/07 00:36:39;;;;;;;14.60;9.40;;;;;;;;;;4999088;28;20697;-72
2022/05/07 00:39:05;;;;;;;17.00;10.63;;;;;;;;;;4992835;28;20317;-72
2022/05/07 00:41:31;;;;;;;13.90;9.90;;;;;;;;;;4994145;28;20298;-73
2022/05/07 00:43:57;;;;;;;10.87;8.97;;;;;;;;;;4994805;28;20687;-72
2022/05/07 00:46:23;;;;;;;16.17;9.53;;;;;;;;;;4991456;28;20329;-72
2022/05/07 00:48:49;;;;;;;12.67;9.80;;;;;;;;;;4986588;28;20316;-73
2022/05/07 00:51:33;;;;;;;12.13;9.53;;;;;;;;;;5003439;28;20268;-73
2022/05/07 00:53:59;;;;;;;12.30;9.40;;;;;;;;;;4996470;28;20243;-73
2022/05/07 00:56:25;;;;;;;13.77;9.20;;;;;;;;;;4995496;28;20229;-73
2022/05/07 00:58:52;;;;;;;17.77;10.53;;;;;;;;;;5001103;28;20891;-73
2022/05/07 01:01:17;;;;;;;13.93;9.90;;;;;;;;;;4992878;28;20187;-72
2022/05/07 01:03:46;;;;;;;15.87;10.40;;;;;;;;;;4988225;28;20269;-72
2022/05/07 01:06:12;;;;;;;15.63;9.73;;;;;;;;;;4978798;28;20248;-73
2022/05/07 01:08:38;;;;;;;14.20;9.37;;;;;;;;;;4986111;28;20217;-73
2022/05/07 01:11:04;;;;;;;13.03;9.70;;;;;;;;;;4976579;28;20691;-72
2022/05/07 01:13:30;;;;;;;13.13;10.10;;;;;;;;;;4989958;28;20252;-73
2022/05/07 01:15:57;;;;;;;13.17;10.60;;;;;;;;;;4989847;28;20198;-73
2022/05/07 01:18:23;;;;;;;12.27;10.07;;;;;;;;;;4985844;28;20190;-73
2022/05/07 01:20:49;;;;;;;14.07;10.47;;;;;;;;;;4997899;28;20186;-73
2022/05/07 01:23:15;;;;;;;13.80;9.93;;;;;;;;;;4991227;28;20248;-73
2022/05/07 01:25:41;;;;;;;11.80;9.27;;;;;;;;;;4993417;28;20194;-73
2022/05/07 01:28:07;;;;;;;13.17;10.10;;;;;;;;;;4996323;28;20578;-73
2022/05/07 01:30:36;;;;;;;13.90;11.03;;;;;;;;;;4987160;28;20197;-73
2022/05/07 01:33:02;;;;;;;15.47;10.13;;;;;;;;;;4990026;28;20196;-73
2022/05/07 01:35:28;;;;;;;20.30;10.20;;;;;;;;;;4979959;28;20198;-73
2022/05/07 01:37:54;;;;;;;15.27;10.10;;;;;;;;;;4970935;28;23867;-73
2022/05/07 01:40:19;;;;;;;16.13;9.80;;;;;;;;;;4979190;28;20293;-73
2022/05/07 01:42:45;;;;;;;17.17;10.50;;;;;;;;;;4988131;28;21075;-72
2022/05/07 01:45:11;;;;;;;14.17;11.27;;;;;;;;;;4989084;28;20198;-73
2022/05/07 01:50:22;;;;;;;15.47;10.73;;;;;;;;;;4984603;28;20229;-72
2022/05/07 01:52:48;;;;;;;13.13;10.00;;;;;;;;;;4995913;28;20277;-73
2022/05/07 01:55:14;;;;;;;13.07;10.27;;;;;;;;;;4987476;28;20244;-72
2022/05/07 01:57:40;;;;;;;13.60;10.30;;;;;;;;;;5001966;28;20201;-72
2022/05/07 02:00:06;;;;;;;14.80;10.43;;;;;;;;;;4985587;28;20221;-72
2022/05/07 02:02:32;;;;;;;14.20;9.80;;;;;;;;;;4989617;28;20284;-73
2022/05/07 02:04:58;;;;;;;13.07;10.40;;;;;;;;;;4987329;28;20237;-73
2022/05/07 02:07:24;;;;;;;15.67;10.03;;;;;;;;;;4989757;28;20580;-73
2022/05/07 02:09:51;;;;;;;12.90;10.27;;;;;;;;;;4990503;28;20186;-73
2022/05/07 02:12:17;;;;;;;14.67;10.40;;;;;;;;;;4963298;28;20179;-73
2022/05/07 02:14:43;;;;;;;13.37;10.13;;;;;;;;;;4990637;28;20189;-73
2022/05/07 02:17:09;;;;;;;14.00;10.10;;;;;;;;;;4987639;28;20190;-73
2022/05/07 02:19:35;;;;;;;16.97;10.37;;;;;;;;;;4990130;28;20609;-73
2022/05/07 02:22:01;;;;;;;11.67;9.87;;;;;;;;;;4972295;28;20197;-72
2022/05/07 02:24:27;;;;;;;13.30;10.77;;;;;;;;;;4991325;28;20249;-72
2022/05/07 02:26:53;;;;;;;11.57;10.23;;;;;;;;;;4994413;28;20194;-73
2022/05/07 02:29:20;;;;;;;12.17;9.70;;;;;;;;;;4984033;28;20261;-73
2022/05/07 02:32:03;;;;;;;14.27;10.53;;;;;;;;;;4986646;28;20534;-73
2022/05/07 02:34:30;;;;;;;13.23;9.83;;;;;;;;;;4983314;28;20193;-73
2022/05/07 02:36:56;;;;;;;11.40;10.07;;;;;;;;;;4989678;28;20214;-73
2022/05/07 02:39:22;;;;;;;13.83;10.67;;;;;;;;;;4986969;28;20197;-73
2022/05/07 02:44:32;;;;;;;15.43;10.07;;;;;;;;;;4988542;28;20221;-73
2022/05/07 02:46:58;;;;;;;13.90;10.37;;;;;;;;;;4980750;28;20190;-73
2022/05/07 02:49:24;;;;;;;15.47;10.47;;;;;;;;;;4987364;28;20576;-73
2022/05/07 02:51:50;;;;;;;13.80;9.93;;;;;;;;;;4987396;28;20189;-73
2022/05/07 02:54:16;;;;;;;12.17;10.23;;;;;;;;;;4989641;28;20925;-73
2022/05/07 02:56:42;;;;;;;15.83;10.87;;;;;;;;;;4990816;28;20189;-74
2022/05/07 02:59:08;;;;;;;16.60;10.77;;;;;;;;;;4993637;28;20722;-73
2022/05/07 03:01:34;;;;;;;14.60;10.07;;;;;;;;;;4972113;28;20380;-73
2022/05/07 03:04:00;;;;;;;12.27;9.90;;;;;;;;;;4986625;28;20241;-73
2022/05/07 03:06:26;;;;;;;11.33;9.90;;;;;;;;;;4973162;28;21095;-73
2022/05/07 03:08:52;;;;;;;15.20;10.97;;;;;;;;;;4975706;28;21259;-72
2022/05/07 03:11:18;;;;;;;14.57;10.97;;;;;;;;;;4971247;28;20193;-72
2022/05/07 03:13:44;;;;;;;15.03;10.40;;;;;;;;;;4979995;28;20190;-74
2022/05/07 03:16:10;;;;;;;12.67;10.70;;;;;;;;;;4989701;28;20208;-72
2022/05/07 03:18:36;;;;;;;13.23;10.60;;;;;;;;;;4986876;28;20213;-73
2022/05/07 03:21:02;;;;;;;13.90;11.03;;;;;;;;;;4985401;28;20651;-73
2022/05/07 03:23:28;;;;;;;15.07;10.20;;;;;;;;;;4989470;28;20222;-73
2022/05/07 03:25:55;;;;;;;15.27;10.47;;;;;;;;;;4987803;28;20194;-73
2022/05/07 03:28:21;;;;;;;12.67;10.10;;;;;;;;;;4995952;28;20190;-73
2022/05/07 03:30:47;;;;;;;14.50;10.50;;;;;;;;;;4983642;28;20189;-73
2022/05/07 03:33:14;;;;;;;13.87;10.03;;;;;;;;;;4986832;28;20193;-73
2022/05/07 03:35:40;;;;;;;14.17;10.47;;;;;;;;;;4985918;28;20194;-73
2022/05/07 03:38:06;;;;;;;13.50;10.30;;;;;;;;;;4998570;28;20185;-73
2022/05/07 03:40:32;;;;;;;14.13;10.43;;;;;;;;;;4990139;28;21074;-74
2022/05/07 03:42:58;;;;;;;18.50;10.67;;;;;;;;;;4982456;28;20224;-73
2022/05/07 03:45:24;;;;;;;17.97;10.93;;;;;;;;;;4982006;28;20693;-73
2022/05/07 03:47:50;;;;;;;16.73;10.30;;;;;;;;;;4988135;28;20750;-73
2022/05/07 03:50:16;;;;;;;13.40;10.23;;;;;;;;;;4989201;28;20186;-72
2022/05/07 03:55:26;;;;;;;14.97;10.53;;;;;;;;;;4990990;28;20245;-73
2022/05/07 03:57:54;;;;;;;15.30;9.77;;;;;;;;;;4990389;28;20197;-73
2022/05/07 04:00:20;;;;;;;15.97;11.17;;;;;;;;;;4981726;28;20248;-73
2022/05/07 04:02:46;;;;;;;15.70;10.40;;;;;;;;;;4991978;28;20222;-73
2022/05/07 04:05:12;;;;;;;12.47;10.10;;;;;;;;;;4985181;28;20244;-73
2022/05/07 04:07:38;;;;;;;14.80;10.33;;;;;;;;;;4981414;28;20560;-73
2022/05/07 04:10:04;;;;;;;14.47;10.00;;;;;;;;;;4991280;28;20626;-73
2022/05/07 04:12:30;;;;;;;11.77;10.07;;;;;;;;;;4991761;28;20197;-73
2022/05/07 04:15:00;;;;;;;14.43;10.70;;;;;;;;;;4986403;28;20193;-73
2022/05/07 04:17:26;;;;;;;12.90;10.43;;;;;;;;;;4991477;28;20183;-73
2022/05/07 04:19:52;;;;;;;13.70;9.80;;;;;;;;;;4991112;28;20229;-73
2022/05/07 04:22:18;;;;;;;13.47;10.67;;;;;;;;;;4981181;28;20276;-73
2022/05/07 04:24:44;;;;;;;12.37;10.37;;;;;;;;;;4992083;28;20186;-73
2022/05/07 04:27:10;;;;;;;14.00;10.20;;;;;;;;;;4993992;28;20198;-73
2022/05/07 04:29:36;;;;;;;13.17;10.77;;;;;;;;;;4986227;28;20201;-73
2022/05/07 04:32:02;;;;;;;14.73;10.00;;;;;;;;;;4992374;28;20600;-73
2022/05/07 04:34:29;;;;;;;15.23;10.07;;;;;;;;;;4994275;28;20189;-73
2022/05/07 04:36:55;;;;;;;12.80;10.83;;;;;;;;;;4986231;28;20797;-74
2022/05/07 04:39:21;;;;;;;14.17;9.83;;;;;;;;;;4992815;28;20186;-73
2022/05/07 04:41:47;;;;;;;12.73;10.00;;;;;;;;;;4996228;28;20190;-73
2022/05/07 04:44:13;;;;;;;14.63;10.53;;;;;;;;;;4993371;28;20217;-72
2022/05/07 04:46:42;;;;;;;13.93;9.60;;;;;;;;;;4992721;28;20194;-73
2022/05/07 04:49:08;;;;;;;13.33;10.00;;;;;;;;;;4999612;28;20193;-73
2022/05/07 04:51:34;;;;;;;12.33;10.10;;;;;;;;;;4992009;28;20190;-73
2022/05/07 04:54:00;;;;;;;11.73;9.40;;;;;;;;;;4989349;28;20200;-73
2022/05/07 04:56:26;;;;;;;11.23;9.80;;;;;;;;;;4994100;28;20269;-73
2022/05/07 04:58:52;;;;;;;11.50;10.10;;;;;;;;;;4994688;28;20280;-73
2022/05/07 05:01:18;;;;;;;11.53;9.10;;;;;;;;;;4987462;28;20769;-73
2022/05/07 05:03:44;;;;;;;15.23;10.13;;;;;;;;;;4987543;28;20228;-73
2022/05/07 05:06:10;;;;;;;11.87;10.27;;;;;;;;;;5001119;28;20181;-72
2022/05/07 05:08:36;;;;;;;10.90;9.77;;;;;;;;;;5002184;28;20202;-73
2022/05/07 05:11:02;;;;;;;10.77;9.40;;;;;;;;;;4996090;28;20205;-73
2022/05/07 05:13:28;;;;;;;13.33;9.77;;;;;;;;;;4991799;28;20193;-73
2022/05/07 05:15:55;;;;;;;13.10;10.17;;;;;;;;;;4991829;28;20570;-72
2022/05/07 05:18:21;;;;;;;11.07;9.63;;;;;;;;;;4994563;28;20196;-73
2022/05/07 05:20:46;;;;;;;11.77;9.77;;;;;;;;;;4999693;28;20189;-74
2022/05/07 05:23:12;;;;;;;13.10;9.87;;;;;;;;;;4992390;28;20218;-73
2022/05/07 05:25:43;;;;;;;12.80;9.40;;;;;;;;;;4992828;28;20186;-74
2022/05/07 05:28:09;;;;;;;12.20;9.93;;;;;;;;;;4994885;28;20186;-73
2022/05/07 05:30:35;;;;;;;13.90;10.00;;;;;;;;;;4988775;28;20200;-73
2022/05/07 05:33:01;;;;;;;14.40;10.50;;;;;;;;;;4981097;28;20575;-73
2022/05/07 05:35:27;;;;;;;12.30;9.73;;;;;;;;;;4967442;28;21517;-73
2022/05/07 05:37:54;;;;;;;12.03;9.50;;;;;;;;;;4990687;28;20753;-73
2022/05/07 05:40:20;;;;;;;12.67;9.47;;;;;;;;;;4981972;28;20189;-73
2022/05/07 05:42:47;;;;;;;12.10;9.97;;;;;;;;;;4987141;28;20213;-73
2022/05/07 05:45:12;;;;;;;11.67;9.60;;;;;;;;;;4975810;28;20537;-73
2022/05/07 05:47:38;;;;;;;15.27;10.33;;;;;;;;;;4987453;28;20193;-73
2022/05/07 05:50:05;;;;;;;11.10;8.87;;;;;;;;;;4980597;28;20202;-74
2022/05/07 05:52:32;;;;;;;10.87;9.33;;;;;;;;;;4987276;28;20689;-74
2022/05/07 05:54:58;;;;;;;10.57;8.10;;;;;;;;;;4986874;28;20200;-74
2022/05/07 05:57:24;;;;;;;9.20;8.20;;;;;;;;;;4986054;28;20201;-74
2022/05/07 05:59:50;;;;;;;9.77;8.60;;;;;;;;;;4990635;28;20248;-74
2022/05/07 06:02:18;;;;;;;10.83;8.37;;;;;;;;;;4983306;28;20249;-74
2022/05/07 06:04:44;;;;;;;11.70;8.77;;;;;;;;;;4972058;28;20237;-76
2022/05/07 06:07:10;;;;;;;9.57;8.37;;;;;;;;;;4982052;28;20281;-75
2022/05/07 06:09:36;;;;;;;10.43;8.70;;;;;;;;;;4983595;28;20567;-75
2022/05/07 06:12:02;;;;;;;11.37;8.93;;;;;;;;;;4979936;28;20547;-75
2022/05/07 06:14:28;;;;;;;12.73;8.93;;;;;;;;;;4985818;28;20197;-74
2022/05/07 06:16:53;;;;;;;10.07;8.63;;;;;;;;;;4989849;28;21225;-74
2022/05/07 06:19:19;;;;;;;13.27;9.17;;;;;;;;;;4985191;28;20542;-75
2022/05/07 06:21:45;;;;;;;14.70;9.70;;;;;;;;;;4995254;28;20564;-74
2022/05/07 06:29:40;;;;;;;16.53;11.20;;;;;;;;;;4976591;28;20193;-74
2022/05/07 06:32:07;;;;;;;16.47;12.97;;;;;;;;;;4981675;28;20895;-76
2022/05/07 06:34:33;;;;;;;15.97;12.73;;;;;;;;;;4964994;28;20197;-75
2022/05/07 06:36:59;;;;;;;14.10;11.93;;;;;;;;;;4983059;28;20208;-74
2022/05/07 06:39:25;;;;;;;18.87;12.33;;;;;;;;;;4983540;28;20209;-74
2022/05/07 06:41:51;;;;;;;14.93;13.27;;;;;;;;;;4984982;28;20191;-75
2022/05/07 06:44:17;;;;;;;16.73;12.90;;;;;;;;;;4990738;28;20587;-74
2022/05/07 06:46:44;;;;;;;17.90;13.20;;;;;;;;;;4979004;28;20216;-74
2022/05/07 06:49:10;;;;;;;18.93;13.40;;;;;;;;;;4982362;28;20189;-74
2022/05/07 06:51:36;;;;;;;14.80;11.80;;;;;;;;;;4978652;28;20186;-74
2022/05/07 06:54:02;;;;;;;16.77;13.23;;;;;;;;;;4987155;28;20749;-74
2022/05/07 06:56:29;;;;;;;21.27;13.67;;;;;;;;;;4981367;28;20197;-74
2022/05/07 06:58:55;;;;;;;13.90;11.60;;;;;;;;;;4970660;28;20198;-74
2022/05/07 07:01:21;;;;;;;17.07;12.67;;;;;;;;;;4982654;28;20526;-74
2022/05/07 07:03:47;;;;;;;13.80;11.73;;;;;;;;;;4969895;28;20610;-74
2022/05/07 07:06:13;;;;;;;17.10;12.60;;;;;;;;;;4981995;28;20181;-73
2022/05/07 07:08:39;;;;;;;15.40;13.00;;;;;;;;;;4983735;28;20222;-74
2022/05/07 07:11:05;;;;;;;17.43;11.80;;;;;;;;;;4978323;28;20197;-74
2022/05/07 07:13:30;;;;;;;16.07;12.53;;;;;;;;;;4978646;28;20244;-75
2022/05/07 07:15:56;;;;;;;18.00;13.20;;;;;;;;;;4954551;28;20186;-75
2022/05/07 07:18:22;;;;;;;15.93;12.60;;;;;;;;;;4985040;28;20558;-73
2022/05/07 07:20:49;;;;;;;15.43;11.10;;;;;;;;;;4973212;28;20301;-74
2022/05/07 07:23:15;;;;;;;13.93;10.10;;;;;;;;;;4991843;28;20210;-73
2022/05/07 07:25:41;;;;;;;12.67;10.47;;;;;;;;;;4984777;28;20189;-73
2022/05/07 07:28:10;;;;;;;12.90;9.83;;;;;;;;;;4986159;28;20189;-73
2022/05/07 07:30:36;;;;;;;12.73;9.10;;;;;;;;;;4984873;28;20194;-73
2022/05/07 07:33:02;;;;;;;13.60;8.33;;;;;;;;;;4988741;28;20197;-73
2022/05/07 07:35:28;;;;;;;12.17;8.87;;;;;;;;;;4969453;28;20319;-73
2022/05/07 07:37:55;;;;;;;13.73;9.43;;;;;;;;;;4985029;28;20282;-73
2022/05/07 07:40:20;;;;;;;12.15;8.35;;;;;;;;;;4985356;28;21175;-74
2022/05/07 07:42:46;;;;;;;17.20;9.63;;;;;;;;;;4979286;28;20193;-73
2022/05/07 07:47:57;;;;;;;15.40;9.00;;;;;;;;;;4982048;28;20199;-73
2022/05/07 07:50:24;;;;;;;15.13;8.40;;;;;;;;;;4976350;28;20194;-73
2022/05/07 07:52:53;;;;;;;14.82;9.50;;;;;;;;;;4986644;28;20182;-74
2022/05/07 07:55:20;;;;;;;15.82;8.45;;;;;;;;;;4973316;28;20683;-74
2022/05/07 07:57:46;;;;;;;13.52;10.23;;;;;;;;;;4976702;28;20488;-69
2022/05/07 08:00:12;;;;;;;12.50;9.15;;;;;;;;;;4976564;28;20666;-72
2022/05/07 08:02:52;;;;;;;13.68;8.07;;;;;;;;;;4969906;28;20192;-74
2022/05/07 08:05:20;;;;;;;10.88;7.28;;;;;;;;;;4968167;28;21480;-73
2022/05/07 08:13:15;;;;;;;16.40;8.70;;;;;;;;;;4986957;28;20224;-73
2022/05/07 08:15:42;;;;;;;11.82;7.95;;;;;;;;;;4993949;28;20194;-73
2022/05/07 08:18:08;;;;;;;11.27;8.73;;;;;;;;;;4989216;28;20205;-72
2022/05/07 08:20:34;;;;;;;13.23;8.27;;;;;;;;;;4993788;28;20189;-72
2022/05/07 08:23:00;;;;;;;13.98;8.48;;;;;;;;;;4993725;28;20674;-73
2022/05/07 08:25:26;;;;;;;11.50;7.75;;;;;;;;;;4990055;28;20210;-72
2022/05/07 08:27:52;;;;;;;12.30;8.70;;;;;;;;;;4996834;28;20197;-73
2022/05/07 08:30:18;;;;;;;16.10;8.18;;;;;;;;;;4995150;28;20282;-72
2022/05/07 08:32:44;;;;;;;10.02;7.60;;;;;;;;;;4992082;28;20616;-73
2022/05/07 08:35:10;;;;;;;13.15;7.97;;;;;;;;;;4989989;28;20174;-73
2022/05/07 08:37:36;;;;;;;12.70;8.02;;;;;;;;;;4991685;28;20194;-72
2022/05/07 08:40:03;;;;;;;11.50;8.10;;;;;;;;;;4991667;28;20785;-72
2022/05/07 08:42:29;;;;;;;16.50;8.55;;;;;;;;;;4998115;28;20653;-72
2022/05/07 08:44:56;;;;;;;10.75;7.65;;;;;;;;;;4991575;28;20598;-72
2022/05/07 08:47:25;;;;;;;8.90;7.32;;;;;;;;;;4990514;28;20625;-72
2022/05/07 08:49:52;;;;;;;11.63;8.32;;;;;;;;;;4991231;28;20181;-72
2022/05/07 08:52:18;;;;;;;12.85;8.32;;;;;;;;;;4989407;28;20608;-72
2022/05/07 08:54:45;;;;;;;11.93;7.53;;;;;;;;;;4974475;28;24973;-72
2022/05/07 08:57:11;;;;;;;11.65;8.55;;;;;;;;;;4990445;28;20177;-72
2022/05/07 08:59:38;;;;;;;11.43;7.63;;;;;;;;;;5001628;28;20698;-72
2022/05/07 09:02:04;;;;;;;10.70;7.68;;;;;;;;;;4991546;28;20245;-73
2022/05/07 09:04:30;;;;;;;15.27;8.20;;;;;;;;;;4993692;28;20231;-72
2022/05/07 09:06:57;;;;;;;10.23;7.18;;;;;;;;;;4993693;28;20186;-74
2022/05/07 09:09:23;;;;;;;17.20;8.32;;;;;;;;;;4992735;28;20205;-72
2022/05/07 09:11:49;;;;;;;11.10;8.15;;;;;;;;;;4993580;28;20210;-72
2022/05/07 09:14:18;;;;;;;11.82;8.15;;;;;;;;;;4995804;28;20182;-72
2022/05/07 09:16:50;;;;;;;11.07;8.10;;;;;;;;;;4987560;28;20229;-72
2022/05/07 09:19:19;;;;;;;12.38;8.35;;;;;;;;;;4988917;28;20174;-72
2022/05/07 09:21:47;;;;;;;13.77;8.77;;;;;;;;;;4995697;28;20256;-73
2022/05/07 09:24:13;;;;;;;14.18;8.50;;;;;;;;;;4988842;28;20251;-72
2022/05/07 09:26:40;;;;;;;12.73;8.93;;;;;;;;;;4994666;28;20190;-73
2022/05/07 09:29:10;;;;;;;14.20;7.82;;;;;;;;;;4997761;28;20269;-74
2022/05/07 09:31:36;;;;;;;12.90;7.85;;;;;;;;;;4997332;28;20199;-73
2022/05/07 09:36:57;;;;;;;12.40;7.57;;;;;;;;;;4994325;28;21204;-73
2022/05/07 09:39:23;;;;;;;15.68;8.15;;;;;;;;;;4992463;28;20208;-73
2022/05/07 09:41:55;;;;;;;10.10;7.45;;;;;;;;;;4994722;28;20251;-73
2022/05/07 09:44:24;;;;;;;11.63;7.45;;;;;;;;;;4980219;28;20359;-72
2022/05/07 09:46:50;;;;;;;10.48;7.13;;;;;;;;;;4981561;28;20177;-73
2022/05/07 09:49:16;;;;;;;13.15;7.25;;;;;;;;;;4986588;28;20586;-72
2022/05/07 09:51:41;;;;;;;11.05;7.47;;;;;;;;;;4995486;28;20241;-72
2022/05/07 09:59:37;;;;;;;10.23;7.47;;;;;;;;;;4993504;28;20192;-72
2022/05/07 10:02:12;;;;;;;12.13;7.43;;;;;;;;;;4992745;28;20206;-73
2022/05/07 10:04:44;;;;;;;10.48;7.70;;;;;;;;;;4988875;28;20319;-72
2022/05/07 10:07:26;;;;;;;10.27;8.63;;;;;;;;;;4998383;28;20205;-73
2022/05/07 10:10:05;;;;;;;12.25;8.88;;;;;;;;;;4995142;28;20178;-71
2022/05/07 10:12:31;;;;;;;11.02;8.55;;;;;;;;;;5001464;28;20719;-71
2022/05/07 10:15:12;;;;;;;12.80;8.15;;;;;;;;;;4995455;28;20263;-72
2022/05/07 10:17:37;;;;;;;12.73;7.78;;;;;;;;;;4996217;28;20205;-72
2022/05/07 10:20:04;;;;;;;12.95;9.02;;;;;;;;;;4994700;28;20674;-71
2022/05/07 10:22:30;;;;;;;15.43;9.35;;;;;;;;;;4997991;28;20769;-73
2022/05/07 10:25:04;;;;;;;12.13;8.32;;;;;;;;;;4993174;28;20209;-73
2022/05/07 10:27:30;;;;;;;13.60;10.07;;;;;;;;;;4992456;28;20280;-73
2022/05/07 10:30:09;;;;;;;16.92;10.30;;;;;;;;;;4998359;28;20189;-72
2022/05/07 10:32:55;;;;;;;14.65;9.38;;;;;;;;;;4998069;28;20185;-72
2022/05/07 10:35:40;;;;;;;11.63;8.93;;;;;;;;;;4989036;28;20240;-73
2022/05/07 10:38:07;;;;;;;16.05;9.80;;;;;;;;;;4985798;28;20178;-71
2022/05/07 10:40:33;;;;;;;12.57;9.52;;;;;;;;;;4998261;28;20205;-73
2022/05/07 10:42:59;;;;;;;14.90;11.05;;;;;;;;;;4974797;28;20279;-72
2022/05/07 10:45:25;;;;;;;14.68;11.73;;;;;;;;;;4975383;28;20178;-73
2022/05/07 10:47:54;;;;;;;15.73;12.27;;;;;;;;;;4975902;28;20186;-73
2022/05/07 10:50:21;;;;;;;15.85;11.88;;;;;;;;;;4976838;28;20551;-73
2022/05/07 10:52:53;;;;;;;17.98;12.48;;;;;;;;;;4975098;28;20178;-73
2022/05/07 10:55:23;;;;;;;17.75;12.00;;;;;;;;;;4985369;28;20221;-73
2022/05/07 10:57:50;;;;;;;16.13;11.20;;;;;;;;;;4982080;28;20689;-73
2022/05/07 11:00:17;;;;;;;13.23;11.70;;;;;;;;;;4989557;28;20181;-73
2022/05/07 11:02:43;;;;;;;17.27;12.60;;;;;;;;;;4989716;28;20726;-73
2022/05/07 11:05:11;;;;;;;17.00;11.63;;;;;;;;;;4988530;28;20668;-73
2022/05/07 11:07:37;;;;;;;16.58;12.82;;;;;;;;;;4982599;28;20189;-73
2022/05/07 11:10:03;;;;;;;14.63;11.40;;;;;;;;;;4981724;28;20193;-72
2022/05/07 11:12:30;;;;;;;15.30;13.70;;;;;;;;;;4982821;28;20792;-73
2022/05/07 11:14:55;;;;;;;20.10;13.20;;;;;;;;;;4991889;28;20182;-75
2022/05/07 11:17:29;;;;;;;14.82;13.23;;;;;;;;;;4990756;28;20193;-72
2022/05/07 11:19:55;;;;;;;16.75;13.40;;;;;;;;;;4978142;28;20284;-73
2022/05/07 11:22:21;;;;;;;16.63;13.20;;;;;;;;;;4984601;28;20223;-73
2022/05/07 11:24:56;;;;;;;15.45;12.20;;;;;;;;;;4985016;28;20221;-73
2022/05/07 11:27:22;;;;;;;14.90;10.18;;;;;;;;;;4970921;28;20188;-76
2022/05/07 11:29:47;;;;;;;22.98;11.38;;;;;;;;;;4987906;28;20901;-72
2022/05/07 11:32:14;;;;;;;19.25;11.13;;;;;;;;;;4988166;28;20194;-72
2022/05/07 11:34:40;;;;;;;17.48;11.07;;;;;;;;;;4987043;28;20243;-72
2022/05/07 11:37:13;;;;;;;16.33;10.95;;;;;;;;;;4985955;28;20440;-72
2022/05/07 11:39:46;;;;;;;18.20;10.85;;;;;;;;;;4984809;28;20229;-72
2022/05/07 11:42:12;;;;;;;17.58;11.40;;;;;;;;;;4979307;28;20196;-72
2022/05/07 11:47:23;;;;;;;14.27;10.45;;;;;;;;;;4982349;28;20228;-73
2022/05/07 11:50:05;;;;;;;18.05;10.95;;;;;;;;;;4990184;28;20190;-73
2022/05/07 11:52:31;;;;;;;14.43;10.70;;;;;;;;;;4982915;28;20189;-73
2022/05/07 11:54:57;;;;;;;16.00;11.30;;;;;;;;;;4991039;28;20196;-73
2022/05/07 11:57:33;;;;;;;12.68;11.02;;;;;;;;;;4991061;28;20256;-72
2022/05/07 12:00:12;;;;;;;18.27;11.48;;;;;;;;;;4988069;28;20197;-73
2022/05/07 12:02:39;;;;;;;16.20;11.98;;;;;;;;;;4987874;28;20186;-72
2022/05/07 12:05:05;;;;;;;17.00;12.45;;;;;;;;;;4972109;28;20257;-71
2022/05/07 12:07:40;;;;;;;15.52;11.82;;;;;;;;;;4991088;28;20276;-73
2022/05/07 12:10:06;;;;;;;17.70;12.25;;;;;;;;;;4987743;28;20204;-72
2022/05/07 12:12:32;;;;;;;19.00;12.73;;;;;;;;;;4984130;28;20658;-73
2022/05/07 12:14:59;;;;;;;16.73;12.65;;;;;;;;;;4985227;28;20200;-72
2022/05/07 12:20:10;;;;;;;18.70;13.25;;;;;;;;;;4989713;28;20693;-72
2022/05/07 12:30:50;;;;;;;23.08;12.45;;;;;;;;;;4985676;28;20204;-72
2022/05/07 12:33:16;;;;;;;15.25;12.27;;;;;;;;;;4988024;28;20181;-72
2022/05/07 12:35:42;;;;;;;17.27;12.40;;;;;;;;;;4982059;28;20186;-73
2022/05/07 12:38:08;;;;;;;17.83;12.80;;;;;;;;;;4969368;28;20596;-72
2022/05/07 12:40:34;;;;;;;17.58;12.93;;;;;;;;;;4987283;28;20657;-74
2022/05/07 12:43:00;;;;;;;17.63;13.90;;;;;;;;;;4987183;28;20226;-72
2022/05/07 12:45:26;;;;;;;18.83;13.70;;;;;;;;;;4982583;28;20198;-72
2022/05/07 12:47:51;;;;;;;19.83;12.63;;;;;;;;;;4992312;28;20228;-72
2022/05/07 12:50:17;;;;;;;16.17;12.63;;;;;;;;;;4990308;28;25187;-73
2022/05/07 12:52:43;;;;;;;16.75;11.75;;;;;;;;;;4989757;28;20543;-72
2022/05/07 12:55:09;;;;;;;16.58;12.82;;;;;;;;;;4979096;28;20188;-73
2022/05/07 12:57:35;;;;;;;23.92;12.13;;;;;;;;;;4989452;28;20718;-72
2022/05/07 13:00:01;;;;;;;14.25;11.10;;;;;;;;;;4978742;28;20247;-72
2022/05/07 13:02:27;;;;;;;14.57;11.20;;;;;;;;;;4984446;28;20273;-72
2022/05/07 13:04:53;;;;;;;12.70;11.40;;;;;;;;;;4990810;28;21203;-72
2022/05/07 13:07:19;;;;;;;13.35;9.98;;;;;;;;;;4988522;28;20490;-72
2022/05/07 13:09:45;;;;;;;12.05;10.05;;;;;;;;;;4976617;28;20194;-72
2022/05/07 13:12:13;;;;;;;78.60;26.63;;;;;;;;;;4981531;28;20198;-72
2022/05/07 13:14:39;;;;;;;32.70;15.95;;;;;;;;;;4984788;28;20763;-73
2022/05/07 13:17:05;;;;;;;8.75;6.25;;;;;;;;;;4983778;28;20819;-73
2022/05/07 13:19:31;;;;;;;18.70;9.07;;;;;;;;;;4988351;28;20186;-72
2022/05/07 13:21:57;;;;;;;38.00;16.88;;;;;;;;;;4983391;28;20639;-73
2022/05/07 13:24:23;;;;;;;12.10;7.32;;;;;;;;;;4987297;28;20756;-72
2022/05/07 13:26:49;;;;;;;12.18;8.95;;;;;;;;;;4989171;28;20209;-73
2022/05/07 13:29:15;;;;;;;14.57;9.85;;;;;;;;;;4985848;28;20181;-72
2022/05/07 13:31:41;;;;;;;15.40;11.38;;;;;;;;;;4988636;28;20182;-73
2022/05/07 13:34:07;;;;;;;16.48;9.73;;;;;;;;;;4983994;28;20193;-72
2022/05/07 13:36:33;;;;;;;10.27;9.25;;;;;;;;;;4994454;28;20239;-72
2022/05/07 13:39:01;;;;;;;12.77;9.00;;;;;;;;;;4984615;28;20186;-72
2022/05/07 13:41:28;;;;;;;14.25;8.70;;;;;;;;;;4991437;28;20228;-72
2022/05/07 13:43:54;;;;;;;11.93;10.15;;;;;;;;;;4990232;28;20667;-72
2022/05/07 13:46:21;;;;;;;10.32;9.23;;;;;;;;;;4989436;28;20272;-72
2022/05/07 13:48:46;;;;;;;10.57;9.30;;;;;;;;;;4987667;28;20671;-72
2022/05/07 13:51:13;;;;;;;13.45;10.18;;;;;;;;;;4985116;28;20760;-72
2022/05/07 13:53:39;;;;;;;12.98;9.93;;;;;;;;;;4982287;28;20187;-73
2022/05/07 13:56:05;;;;;;;13.90;9.90;;;;;;;;;;4985688;28;20186;-72
2022/05/07 13:58:31;;;;;;;11.77;9.43;;;;;;;;;;4984278;28;20186;-72
2022/05/07 14:00:57;;;;;;;11.77;9.45;;;;;;;;;;4983502;28;20190;-72
2022/05/07 14:03:23;;;;;;;12.48;8.70;;;;;;;;;;4984675;28;20245;-72
2022/05/07 14:05:50;;;;;;;14.40;9.43;;;;;;;;;;4982598;28;20240;-72
2022/05/07 14:08:16;;;;;;;19.25;8.50;;;;;;;;;;4978502;28;20233;-72
2022/05/07 14:10:42;;;;;;;11.13;8.98;;;;;;;;;;4967918;28;20615;-73
2022/05/07 14:13:09;;;;;;;8.50;7.60;;;;;;;;;;4973917;28;20208;-72
2022/05/07 14:15:34;;;;;;;10.80;9.18;;;;;;;;;;4983384;28;20186;-72
2022/05/07 14:18:01;;;;;;;15.40;9.05;;;;;;;;;;4993728;28;20206;-72
2022/05/07 14:20:27;;;;;;;9.75;7.78;;;;;;;;;;4979280;28;20564;-72
2022/05/07 14:22:53;;;;;;;13.30;7.90;;;;;;;;;;4987332;28;20190;-73
2022/05/07 14:25:19;;;;;;;9.57;7.50;;;;;;;;;;4979403;28;20186;-72
2022/05/07 14:27:45;;;;;;;10.25;7.50;;;;;;;;;;4988181;28;20234;-71
2022/05/07 14:30:11;;;;;;;11.70;6.32;;;;;;;;;;4992446;28;20244;-74
2022/05/07 14:32:41;;;;;;;7.78;5.30;;;;;;;;;;4986863;28;20193;-74
2022/05/07 14:35:09;;;;;;;5.30;4.80;;;;;;;;;;4984881;28;20643;-73
2022/05/07 14:37:35;;;;;;;7.07;4.90;;;;;;;;;;4988467;28;20311;-73
2022/05/07 14:40:28;;;;;;;6.60;4.47;;;;;;;;;;4985535;28;20194;-73
2022/05/07 14:42:47;;;;;;;7.57;4.68;;;;;;;;;;4986896;28;20202;-73
2022/05/07 14:45:14;;;;;;;8.82;4.55;;;;;;;;;;4990371;28;20193;-73
2022/05/07 14:47:40;;;;;;;6.30;4.65;;;;;;;;;;4993574;28;20182;-73
2022/05/07 14:50:06;;;;;;;7.40;4.00;;;;;;;;;;4997940;28;20265;-73
2022/05/07 14:52:32;;;;;;;5.78;4.32;;;;;;;;;;4989538;28;20551;-73
2022/05/07 14:54:58;;;;;;;5.88;3.97;;;;;;;;;;4986593;28;20707;-73
2022/05/07 14:57:26;;;;;;;6.40;4.40;;;;;;;;;;4950881;28;20228;-73
2022/05/07 14:59:52;;;;;;;8.18;4.05;;;;;;;;;;4973948;28;20900;-73
2022/05/07 15:02:18;;;;;;;5.88;4.03;;;;;;;;;;4964772;28;20189;-74
2022/05/07 15:04:44;;;;;;;4.25;3.33;;;;;;;;;;4965676;28;20240;-72
2022/05/07 15:07:10;;;;;;;6.35;3.45;;;;;;;;;;4976176;28;20194;-72
2022/05/07 15:12:22;;;;;;;6.82;3.85;;;;;;;;;;4980601;28;20240;-73